Time;durP1;ratioP1;P1;durP2;ratioP2;P2;SDS_P1;SDS_P2;PMS_P1;PMS_P2;Temp;Humidity;BMP_temperature;BMP_pressure;BME280_temperature;BME280_humidity;BME280_pressure;Samples;Min_cycle;Max_cycle;Signal;HPM_P1;HPM_P2
2021/09/03 00:00:13;;;;;;;20.60;13.27;;;15.10;99.90;;;;;;4980983;28;20046;-85
2021/09/03 00:02:39;;;;;;;18.83;12.70;;;15.10;99.90;;;;;;4994222;28;20542;-85
2021/09/03 00:05:07;;;;;;;16.02;11.57;;;15.10;99.90;;;;;;4997647;28;20053;-84
2021/09/03 00:07:33;;;;;;;22.38;13.88;;;15.10;99.90;;;;;;4980732;28;20401;-84
2021/09/03 00:09:59;;;;;;;18.45;12.65;;;15.10;99.90;;;;;;4997885;28;20178;-84
2021/09/03 00:12:24;;;;;;;18.88;13.15;;;15.00;99.90;;;;;;4980710;28;20096;-84
2021/09/03 00:14:50;;;;;;;18.08;12.90;;;15.00;99.90;;;;;;4980423;28;20046;-84
2021/09/03 00:17:15;;;;;;;16.75;12.70;;;15.00;99.90;;;;;;4998163;28;20114;-84
2021/09/03 00:19:41;;;;;;;21.58;13.32;;;14.90;99.90;;;;;;5001218;28;20046;-84
2021/09/03 00:22:07;;;;;;;20.13;14.18;;;14.90;99.90;;;;;;4987813;28;20034;-84
2021/09/03 00:24:32;;;;;;;16.67;12.98;;;14.90;99.90;;;;;;4989690;28;20046;-83
2021/09/03 00:26:57;;;;;;;20.67;14.07;;;14.80;99.90;;;;;;4981061;28;20073;-84
2021/09/03 00:29:23;;;;;;;18.73;13.75;;;14.80;99.90;;;;;;5012519;28;20105;-84
2021/09/03 00:31:49;;;;;;;25.58;16.55;;;14.90;99.90;;;;;;4995918;28;20048;-84
2021/09/03 00:34:14;;;;;;;24.30;15.05;;;14.80;99.90;;;;;;4996199;28;20063;-84
2021/09/03 00:36:42;;;;;;;22.30;14.65;;;14.80;99.90;;;;;;4997154;28;20283;-85
2021/09/03 00:39:08;;;;;;;21.95;13.88;;;14.70;99.90;;;;;;4998912;28;20069;-85
2021/09/03 00:41:33;;;;;;;24.67;15.95;;;14.70;99.90;;;;;;4998703;28;20374;-84
2021/09/03 00:43:59;;;;;;;19.77;13.73;;;14.70;99.90;;;;;;4997834;28;20137;-84
2021/09/03 00:46:24;;;;;;;22.55;15.02;;;14.70;99.90;;;;;;4981758;28;20140;-84
2021/09/03 00:48:50;;;;;;;25.02;15.57;;;14.70;99.90;;;;;;4999226;28;20055;-85
2021/09/03 00:51:15;;;;;;;24.25;14.85;;;14.60;99.90;;;;;;4981181;28;20072;-85
2021/09/03 00:53:41;;;;;;;22.10;14.25;;;14.60;99.90;;;;;;5011548;28;20046;-84
2021/09/03 00:56:06;;;;;;;23.48;15.30;;;14.60;99.90;;;;;;4979245;28;20044;-85
2021/09/03 00:58:32;;;;;;;24.73;15.25;;;14.60;99.90;;;;;;4997020;28;20044;-84
2021/09/03 01:00:57;;;;;;;23.65;14.48;;;14.60;99.90;;;;;;4999189;28;20397;-85
2021/09/03 01:03:23;;;;;;;23.48;14.32;;;14.60;99.90;;;;;;4979378;28;20046;-84
2021/09/03 01:05:48;;;;;;;22.15;13.55;;;14.60;99.90;;;;;;4996515;28;20034;-85
2021/09/03 01:08:14;;;;;;;22.80;14.77;;;14.50;99.90;;;;;;4996126;28;20065;-85
2021/09/03 01:10:39;;;;;;;21.25;14.27;;;14.50;99.90;;;;;;4980004;28;20045;-84
2021/09/03 01:13:06;;;;;;;20.75;14.48;;;14.50;99.90;;;;;;4996651;28;20046;-84
2021/09/03 01:15:32;;;;;;;21.15;14.27;;;14.50;99.90;;;;;;4996344;28;20302;-85
2021/09/03 01:17:58;;;;;;;19.50;13.20;;;14.50;99.90;;;;;;4998900;28;20413;-86
2021/09/03 01:20:23;;;;;;;22.95;14.73;;;14.50;99.90;;;;;;4996155;28;20038;-85
2021/09/03 01:22:49;;;;;;;27.20;14.40;;;14.50;99.90;;;;;;5000711;28;20042;-85
2021/09/03 01:25:15;;;;;;;18.67;14.00;;;14.50;99.90;;;;;;4998478;28;20045;-84
2021/09/03 01:27:41;;;;;;;21.30;13.85;;;14.40;99.90;;;;;;4979249;28;20070;-84
2021/09/03 01:30:12;;;;;;;17.50;12.30;;;14.40;99.90;;;;;;4995743;28;20476;-84
2021/09/03 01:32:39;;;;;;;21.15;13.18;;;14.40;99.90;;;;;;4990040;28;20038;-84
2021/09/03 01:35:04;;;;;;;17.15;12.32;;;14.40;99.90;;;;;;5003827;28;20409;-84
2021/09/03 01:37:30;;;;;;;24.58;14.45;;;14.40;99.90;;;;;;5013271;28;20045;-84
2021/09/03 01:39:55;;;;;;;19.88;13.45;;;14.30;99.90;;;;;;4978493;28;20034;-84
2021/09/03 01:42:21;;;;;;;23.23;14.68;;;14.40;99.90;;;;;;4996595;28;20042;-84
2021/09/03 01:44:46;;;;;;;21.00;13.73;;;14.30;99.90;;;;;;4996170;28;20129;-83
2021/09/03 01:47:12;;;;;;;18.63;13.18;;;14.30;99.90;;;;;;4996206;28;20180;-87
2021/09/03 01:49:37;;;;;;;21.40;13.57;;;14.30;99.90;;;;;;4996446;28;20045;-84
2021/09/03 01:52:04;;;;;;;19.58;13.18;;;14.30;99.90;;;;;;4978537;28;20050;-84
2021/09/03 01:54:29;;;;;;;18.30;12.90;;;14.20;99.90;;;;;;4995345;28;20417;-83
2021/09/03 01:56:55;;;;;;;20.10;14.82;;;14.20;99.90;;;;;;5001873;28;20066;-83
2021/09/03 01:59:21;;;;;;;22.55;14.50;;;14.20;99.90;;;;;;4997073;28;20049;-84
2021/09/03 02:01:46;;;;;;;24.25;14.73;;;14.20;99.90;;;;;;4996233;28;20049;-84
2021/09/03 02:04:12;;;;;;;19.17;12.27;;;14.10;99.90;;;;;;4996057;28;20042;-84
2021/09/03 02:06:37;;;;;;;19.73;13.18;;;14.10;99.90;;;;;;4980141;28;20038;-84
2021/09/03 02:09:03;;;;;;;21.75;12.90;;;14.10;99.90;;;;;;4995372;28;20061;-84
2021/09/03 02:11:28;;;;;;;17.50;12.52;;;14.10;99.90;;;;;;4978855;28;20042;-84
2021/09/03 02:13:54;;;;;;;22.08;14.10;;;14.00;99.90;;;;;;4995229;28;20104;-84
2021/09/03 02:16:19;;;;;;;22.85;13.45;;;14.00;99.90;;;;;;4995085;28;20523;-84
2021/09/03 02:18:45;;;;;;;20.90;13.30;;;14.00;99.90;;;;;;4995116;28;20311;-85
2021/09/03 02:21:10;;;;;;;22.38;13.30;;;14.00;99.90;;;;;;4995601;28;20042;-86
2021/09/03 02:23:36;;;;;;;16.92;12.20;;;13.90;99.90;;;;;;4978937;28;20138;-85
2021/09/03 02:26:02;;;;;;;20.00;12.27;;;13.90;99.90;;;;;;4996014;28;20080;-85
2021/09/03 02:28:27;;;;;;;18.42;13.45;;;13.90;99.90;;;;;;4996110;28;20045;-85
2021/09/03 02:30:52;;;;;;;19.55;13.20;;;13.90;99.90;;;;;;4988064;28;20042;-84
2021/09/03 02:33:18;;;;;;;18.27;12.82;;;13.90;99.90;;;;;;4979178;28;20416;-84
2021/09/03 02:35:44;;;;;;;19.83;13.32;;;13.90;99.90;;;;;;4978042;28;20097;-86
2021/09/03 02:38:10;;;;;;;21.33;12.95;;;13.90;99.90;;;;;;4994999;28;20042;-83
2021/09/03 02:40:36;;;;;;;19.52;12.82;;;13.90;99.90;;;;;;4978812;28;20076;-82
2021/09/03 02:43:02;;;;;;;24.73;13.05;;;13.80;99.90;;;;;;4995276;28;20066;-85
2021/09/03 02:45:27;;;;;;;22.83;12.65;;;13.80;99.90;;;;;;4995838;28;20096;-85
2021/09/03 02:47:53;;;;;;;18.30;10.73;;;13.80;99.90;;;;;;4978537;28;20469;-85
2021/09/03 02:50:18;;;;;;;20.52;12.57;;;13.80;99.90;;;;;;4978873;28;20046;-85
2021/09/03 02:52:44;;;;;;;19.52;13.32;;;13.80;99.90;;;;;;4995904;28;20113;-85
2021/09/03 02:55:09;;;;;;;18.25;12.45;;;13.80;99.90;;;;;;5010782;28;20054;-85
2021/09/03 02:57:35;;;;;;;17.63;11.05;;;13.80;99.90;;;;;;4979214;28;20144;-84
2021/09/03 03:00:00;;;;;;;19.73;12.15;;;13.70;99.90;;;;;;4995829;28;20050;-85
2021/09/03 03:02:26;;;;;;;18.17;12.35;;;13.70;99.90;;;;;;4978906;28;20035;-86
2021/09/03 03:04:51;;;;;;;23.63;12.93;;;13.80;99.90;;;;;;5003189;28;20124;-85
2021/09/03 03:07:17;;;;;;;19.23;12.40;;;13.80;99.90;;;;;;4998100;28;20121;-85
2021/09/03 03:09:42;;;;;;;17.98;12.23;;;13.70;99.90;;;;;;4982013;28;20057;-85
2021/09/03 03:12:10;;;;;;;16.73;11.35;;;13.70;99.90;;;;;;4999692;28;20073;-85
2021/09/03 03:14:36;;;;;;;15.68;10.90;;;13.70;99.90;;;;;;5001916;28;20413;-84
2021/09/03 03:17:02;;;;;;;17.80;11.82;;;13.70;99.90;;;;;;5016649;28;20026;-86
2021/09/03 03:19:29;;;;;;;17.60;12.05;;;13.70;99.90;;;;;;4998424;28;20050;-85
2021/09/03 03:21:55;;;;;;;17.63;11.38;;;13.70;99.90;;;;;;4998421;28;20062;-85
2021/09/03 03:24:20;;;;;;;16.95;12.07;;;13.70;99.90;;;;;;4998579;28;20440;-86
2021/09/03 03:26:46;;;;;;;19.27;12.18;;;13.70;99.90;;;;;;4998188;28;20030;-86
2021/09/03 03:29:12;;;;;;;17.80;11.30;;;13.70;99.90;;;;;;5014233;28;20052;-84
2021/09/03 03:31:38;;;;;;;17.33;10.82;;;13.70;99.90;;;;;;4981212;28;20034;-85
2021/09/03 03:34:04;;;;;;;15.68;11.20;;;13.70;99.90;;;;;;4980835;28;20105;-86
2021/09/03 03:36:30;;;;;;;16.38;11.50;;;13.70;99.90;;;;;;4981774;28;20042;-85
2021/09/03 03:38:55;;;;;;;21.70;12.73;;;13.70;99.90;;;;;;4981635;28;20089;-85
2021/09/03 03:41:21;;;;;;;22.88;12.40;;;13.70;99.90;;;;;;4981828;28;20034;-86
2021/09/03 03:43:47;;;;;;;15.25;11.35;;;13.70;99.90;;;;;;5001163;28;20077;-86
2021/09/03 03:46:12;;;;;;;16.33;11.82;;;13.60;99.90;;;;;;4985824;28;20065;-85
2021/09/03 03:48:38;;;;;;;15.35;11.27;;;13.60;99.90;;;;;;4991206;28;20042;-85
2021/09/03 03:51:03;;;;;;;17.70;11.50;;;13.60;99.90;;;;;;5011068;28;20045;-85
2021/09/03 03:53:29;;;;;;;18.40;11.40;;;13.70;99.90;;;;;;5003033;28;20045;-85
2021/09/03 03:55:54;;;;;;;21.50;11.02;;;13.60;99.90;;;;;;5001643;28;20046;-86
2021/09/03 03:58:20;;;;;;;15.40;10.52;;;13.70;99.90;;;;;;4982723;28;20041;-84
2021/09/03 04:00:45;;;;;;;16.35;11.38;;;13.70;99.90;;;;;;4998728;28;20108;-85
2021/09/03 04:03:11;;;;;;;15.15;11.43;;;13.60;99.90;;;;;;4981775;28;20105;-84
2021/09/03 04:05:37;;;;;;;16.48;11.77;;;13.60;99.90;;;;;;4997485;28;20070;-83
2021/09/03 04:08:03;;;;;;;17.05;11.50;;;13.60;99.90;;;;;;4981775;28;20038;-86
2021/09/03 04:10:29;;;;;;;16.17;12.02;;;13.70;99.90;;;;;;4996440;28;20048;-86
2021/09/03 04:12:54;;;;;;;15.00;10.75;;;13.70;99.90;;;;;;5013898;28;20038;-84
2021/09/03 04:15:20;;;;;;;17.70;11.50;;;13.70;99.90;;;;;;4996651;28;20034;-85
2021/09/03 04:17:46;;;;;;;18.48;12.75;;;13.70;99.90;;;;;;4978951;28;20697;-85
2021/09/03 04:20:11;;;;;;;15.35;11.05;;;13.70;99.90;;;;;;5013696;28;20042;-85
2021/09/03 04:22:37;;;;;;;19.83;11.23;;;13.70;99.90;;;;;;5016357;28;20104;-85
2021/09/03 04:25:07;;;;;;;18.52;11.07;;;13.70;99.90;;;;;;4998417;28;20124;-88
2021/09/03 04:27:33;;;;;;;15.43;11.07;;;13.70;99.90;;;;;;5013326;28;20054;-84
2021/09/03 04:29:59;;;;;;;18.85;12.18;;;13.70;99.90;;;;;;4973163;28;20452;-85
2021/09/03 04:32:24;;;;;;;15.57;10.88;;;13.70;99.90;;;;;;4982996;28;20107;-85
2021/09/03 04:34:50;;;;;;;18.85;11.48;;;13.70;99.90;;;;;;4979347;28;20442;-85
2021/09/03 04:37:15;;;;;;;16.88;11.45;;;13.60;99.90;;;;;;4993088;28;20146;-83
2021/09/03 04:39:41;;;;;;;19.63;10.75;;;13.60;99.90;;;;;;4993896;28;20069;-85
2021/09/03 04:42:07;;;;;;;18.00;11.02;;;13.60;99.90;;;;;;4994764;28;20360;-85
2021/09/03 04:44:33;;;;;;;15.25;11.38;;;13.60;99.90;;;;;;4979078;28;20034;-84
2021/09/03 04:46:58;;;;;;;14.48;10.38;;;13.70;99.90;;;;;;4995252;28;20334;-86
2021/09/03 04:49:24;;;;;;;14.35;10.63;;;13.60;99.90;;;;;;4994925;28;20081;-86
2021/09/03 04:51:49;;;;;;;14.95;10.65;;;13.60;99.90;;;;;;4977933;28;20080;-85
2021/09/03 04:54:15;;;;;;;15.95;11.35;;;13.60;99.90;;;;;;4976751;28;20054;-84
2021/09/03 04:56:40;;;;;;;13.48;9.73;;;13.60;99.90;;;;;;4993016;28;20042;-85
2021/09/03 04:59:06;;;;;;;14.82;10.57;;;13.70;99.90;;;;;;4976412;28;20079;-85
2021/09/03 05:01:31;;;;;;;20.70;11.35;;;13.70;99.90;;;;;;4994333;28;20042;-85
2021/09/03 05:03:57;;;;;;;17.02;11.77;;;13.70;99.90;;;;;;5008419;28;20042;-85
2021/09/03 05:06:23;;;;;;;14.45;10.52;;;13.70;99.90;;;;;;4982801;28;20109;-85
2021/09/03 05:08:48;;;;;;;17.27;11.45;;;13.70;99.90;;;;;;4977303;28;20034;-85
2021/09/03 05:11:14;;;;;;;15.48;11.15;;;13.70;99.90;;;;;;5009599;28;20479;-85
2021/09/03 05:13:39;;;;;;;15.65;10.30;;;13.80;99.90;;;;;;4981025;28;20052;-85
2021/09/03 05:16:05;;;;;;;17.77;10.77;;;13.80;99.90;;;;;;4993830;28;20046;-84
2021/09/03 05:18:30;;;;;;;12.63;10.25;;;13.80;99.90;;;;;;4993657;28;20038;-84
2021/09/03 05:20:56;;;;;;;18.35;11.60;;;13.90;99.90;;;;;;4979096;28;20046;-85
2021/09/03 05:23:21;;;;;;;17.73;11.93;;;13.90;99.90;;;;;;4992693;28;20045;-85
2021/09/03 05:25:47;;;;;;;19.88;13.50;;;14.00;99.90;;;;;;5009314;28;20042;-85
2021/09/03 05:28:12;;;;;;;21.85;13.65;;;14.10;99.90;;;;;;4991264;28;20465;-84
2021/09/03 05:30:38;;;;;;;21.63;14.23;;;14.10;99.90;;;;;;4976134;28;20042;-85
2021/09/03 05:33:03;;;;;;;17.77;12.90;;;14.20;99.90;;;;;;4977061;28;20065;-85
2021/09/03 05:35:29;;;;;;;23.90;16.38;;;14.30;99.90;;;;;;4994620;28;20034;-86
2021/09/03 05:37:55;;;;;;;24.15;15.63;;;14.40;99.90;;;;;;4979368;28;20034;-85
2021/09/03 05:40:22;;;;;;;25.52;15.88;;;14.40;99.90;;;;;;4977790;28;20042;-84
2021/09/03 05:42:48;;;;;;;24.60;15.48;;;14.50;99.90;;;;;;4994016;28;20037;-86
2021/09/03 05:45:14;;;;;;;22.42;15.07;;;14.60;99.90;;;;;;4994012;28;20038;-84
2021/09/03 05:47:46;;;;;;;29.48;16.08;;;14.70;99.90;;;;;;4976828;28;20053;-85
2021/09/03 05:50:13;;;;;;;19.50;13.68;;;14.70;99.90;;;;;;4994200;28;20041;-85
2021/09/03 05:52:39;;;;;;;21.70;14.48;;;14.80;99.90;;;;;;4976439;28;20065;-84
2021/09/03 05:55:05;;;;;;;21.00;14.80;;;14.80;99.90;;;;;;4992588;28;20124;-84
2021/09/03 05:57:31;;;;;;;20.08;14.18;;;14.90;99.90;;;;;;4993557;28;20030;-84
2021/09/03 05:59:56;;;;;;;22.10;14.07;;;15.00;99.90;;;;;;4993680;28;20089;-84
2021/09/03 06:02:22;;;;;;;22.80;15.18;;;15.00;99.90;;;;;;5010545;28;20073;-84
2021/09/03 06:04:47;;;;;;;22.27;14.45;;;15.00;99.90;;;;;;5012164;28;20046;-86
2021/09/03 06:07:13;;;;;;;19.20;14.38;;;15.10;99.90;;;;;;4997319;28;20046;-84
2021/09/03 06:09:38;;;;;;;22.90;15.02;;;15.20;99.90;;;;;;4994477;28;20079;-85
2021/09/03 06:12:05;;;;;;;21.17;14.45;;;15.20;99.90;;;;;;4993045;28;20038;-85
2021/09/03 06:14:30;;;;;;;21.50;14.20;;;15.30;99.90;;;;;;4993153;28;20069;-85
2021/09/03 06:16:56;;;;;;;23.30;14.73;;;15.30;99.90;;;;;;4977493;28;20443;-84
2021/09/03 06:19:21;;;;;;;25.17;15.30;;;15.40;99.90;;;;;;5006561;28;20038;-84
2021/09/03 06:21:47;;;;;;;26.67;15.57;;;15.40;99.90;;;;;;5010761;28;20096;-85
2021/09/03 06:24:29;;;;;;;21.67;14.93;;;15.40;99.90;;;;;;4994485;28;20650;-84
2021/09/03 06:27:00;;;;;;;22.63;15.25;;;15.50;99.90;;;;;;4993768;28;20877;-86
2021/09/03 06:29:41;;;;;;;18.88;13.52;;;15.50;99.90;;;;;;4994275;28;20060;-83
2021/09/03 06:32:17;;;;;;;19.25;14.07;;;15.60;99.90;;;;;;4993221;28;20046;-84
2021/09/03 06:34:55;;;;;;;19.38;14.15;;;15.60;99.90;;;;;;4993490;28;20038;-84
2021/09/03 06:37:21;;;;;;;21.60;14.95;;;15.70;99.90;;;;;;4974542;28;20044;-84
2021/09/03 06:39:47;;;;;;;19.30;14.60;;;15.70;99.90;;;;;;4995315;28;20038;-85
2021/09/03 06:42:13;;;;;;;19.63;14.75;;;15.60;99.90;;;;;;4981606;28;20386;-85
2021/09/03 06:44:39;;;;;;;22.92;15.05;;;15.70;99.90;;;;;;5003153;28;20616;-84
2021/09/03 06:47:06;;;;;;;22.02;14.63;;;15.70;99.90;;;;;;4998019;28;20135;-84
2021/09/03 06:49:33;;;;;;;20.92;14.05;;;15.70;99.90;;;;;;4998108;28;20042;-85
2021/09/03 06:51:58;;;;;;;23.00;15.65;;;15.80;99.90;;;;;;4997847;28;20034;-85
2021/09/03 06:54:24;;;;;;;25.85;17.35;;;15.80;99.90;;;;;;4997763;28;20045;-86
2021/09/03 06:56:50;;;;;;;22.23;15.38;;;15.90;99.90;;;;;;4996513;28;20081;-84
2021/09/03 06:59:16;;;;;;;23.50;16.38;;;15.90;99.90;;;;;;4997066;28;20037;-85
2021/09/03 07:01:41;;;;;;;26.30;16.80;;;15.90;99.90;;;;;;4996600;28;20034;-85
2021/09/03 07:04:07;;;;;;;19.67;14.68;;;16.00;99.90;;;;;;4996717;28;20104;-86
2021/09/03 07:06:32;;;;;;;22.10;15.43;;;16.10;99.90;;;;;;4979480;28;20576;-86
2021/09/03 07:08:59;;;;;;;22.88;14.70;;;16.20;99.90;;;;;;4997028;28;20070;-85
2021/09/03 07:11:24;;;;;;;17.90;14.88;;;16.30;99.90;;;;;;4981024;28;20073;-85
2021/09/03 07:13:50;;;;;;;20.38;14.45;;;16.30;99.90;;;;;;4997472;28;20549;-85
2021/09/03 07:16:15;;;;;;;21.77;13.73;;;16.40;99.90;;;;;;4996413;28;20046;-85
2021/09/03 07:18:41;;;;;;;22.52;16.05;;;16.50;99.90;;;;;;4978264;28;20104;-84
2021/09/03 07:21:07;;;;;;;26.90;17.80;;;16.60;99.90;;;;;;4997350;28;20041;-85
2021/09/03 07:23:32;;;;;;;21.55;14.20;;;16.70;99.90;;;;;;4998612;28;20502;-85
2021/09/03 07:26:00;;;;;;;20.42;14.45;;;16.80;99.90;;;;;;4995986;28;20418;-85
2021/09/03 07:28:25;;;;;;;19.45;14.63;;;16.90;99.90;;;;;;4977929;28;20053;-85
2021/09/03 07:30:51;;;;;;;19.52;14.57;;;17.00;99.90;;;;;;4977997;28;20634;-85
2021/09/03 07:33:16;;;;;;;20.73;14.82;;;17.10;99.90;;;;;;4995977;28;20209;-85
2021/09/03 07:35:42;;;;;;;19.98;13.60;;;17.10;99.90;;;;;;4978585;28;20038;-85
2021/09/03 07:38:08;;;;;;;19.92;14.30;;;17.20;99.90;;;;;;4978454;28;20121;-85
2021/09/03 07:40:33;;;;;;;29.58;14.27;;;17.30;99.90;;;;;;5010511;28;20057;-86
2021/09/03 07:43:06;;;;;;;22.98;13.95;;;17.40;99.90;;;;;;4994430;28;20651;-85
2021/09/03 07:45:36;;;;;;;24.27;14.40;;;17.50;99.90;;;;;;4990657;28;20035;-84
2021/09/03 07:48:02;;;;;;;27.00;14.70;;;17.50;99.90;;;;;;4994954;28;20038;-85
2021/09/03 07:50:28;;;;;;;18.02;13.85;;;17.60;99.90;;;;;;4993215;28;20034;-85
2021/09/03 07:52:54;;;;;;;21.98;14.32;;;17.60;99.90;;;;;;4996285;28;20041;-86
2021/09/03 07:55:20;;;;;;;19.85;13.98;;;17.70;99.90;;;;;;4996054;28;20042;-84
2021/09/03 07:57:45;;;;;;;19.05;13.98;;;17.80;99.90;;;;;;4986263;28;20053;-84
2021/09/03 08:00:11;;;;;;;18.63;12.50;;;17.90;99.70;;;;;;4995644;28;20038;-84
2021/09/03 08:02:36;;;;;;;16.60;12.68;;;18.00;99.50;;;;;;4978030;28;20034;-83
2021/09/03 08:05:04;;;;;;;17.23;13.10;;;18.10;99.60;;;;;;5010672;28;20042;-84
2021/09/03 08:07:30;;;;;;;16.95;12.77;;;18.20;99.00;;;;;;4995151;28;20038;-84
2021/09/03 08:09:56;;;;;;;19.20;12.98;;;18.30;99.10;;;;;;4994055;28;20108;-86
2021/09/03 08:12:22;;;;;;;19.20;13.20;;;18.30;98.80;;;;;;5021612;28;20413;-85
2021/09/03 08:14:48;;;;;;;20.85;11.90;;;18.40;98.70;;;;;;4977522;28;20042;-85
2021/09/03 08:17:13;;;;;;;16.52;10.95;;;18.50;98.70;;;;;;4978099;28;20054;-84
2021/09/03 08:19:39;;;;;;;14.45;10.35;;;18.70;98.40;;;;;;4998469;28;20045;-85
2021/09/03 08:22:05;;;;;;;13.68;10.75;;;18.80;97.60;;;;;;4979271;28;20123;-84
2021/09/03 08:24:30;;;;;;;13.48;10.73;;;18.90;97.40;;;;;;4995552;28;20038;-85
2021/09/03 08:26:56;;;;;;;16.65;11.50;;;19.10;96.90;;;;;;4995337;28;20045;-85
2021/09/03 08:29:21;;;;;;;16.30;12.18;;;19.20;96.50;;;;;;4979015;28;20045;-85
2021/09/03 08:31:47;;;;;;;15.15;10.77;;;19.20;96.40;;;;;;4979107;28;20113;-85
2021/09/03 08:34:13;;;;;;;16.02;11.18;;;19.30;95.90;;;;;;4994234;28;20043;-85
2021/09/03 08:36:38;;;;;;;13.48;10.27;;;19.50;96.30;;;;;;4979033;28;20040;-85
2021/09/03 08:39:04;;;;;;;14.23;10.23;;;19.60;95.70;;;;;;5010500;28;20724;-85
2021/09/03 08:41:30;;;;;;;14.90;10.18;;;19.70;95.70;;;;;;4978439;28;20413;-85
2021/09/03 08:43:57;;;;;;;13.88;10.80;;;19.80;95.60;;;;;;4978539;28;20042;-84
2021/09/03 08:46:27;;;;;;;17.75;11.45;;;19.90;95.10;;;;;;4995215;28;20061;-85
2021/09/03 08:48:53;;;;;;;16.27;10.25;;;20.00;95.10;;;;;;4994541;28;20041;-84
2021/09/03 08:51:19;;;;;;;16.35;10.88;;;20.10;94.20;;;;;;4978775;28;20137;-85
2021/09/03 08:53:45;;;;;;;14.65;10.90;;;20.20;94.20;;;;;;4978018;28;20042;-85
2021/09/03 08:56:11;;;;;;;24.52;11.77;;;20.20;93.70;;;;;;4995102;28;20030;-86
2021/09/03 08:58:37;;;;;;;16.77;12.85;;;20.30;93.80;;;;;;4994355;28;20154;-85
2021/09/03 09:01:08;;;;;;;19.25;13.38;;;20.30;94.00;;;;;;4995257;28;20034;-85
2021/09/03 09:03:42;;;;;;;19.52;11.82;;;20.40;94.40;;;;;;4996318;28;20089;-86
2021/09/03 09:06:09;;;;;;;18.77;11.40;;;20.50;94.10;;;;;;4980216;28;20034;-85
2021/09/03 09:08:36;;;;;;;21.27;13.15;;;20.50;94.20;;;;;;4979769;28;20390;-85
2021/09/03 09:11:07;;;;;;;19.35;12.35;;;20.60;94.10;;;;;;4979497;28;20050;-85
2021/09/03 09:13:42;;;;;;;19.52;13.00;;;20.70;94.20;;;;;;4994617;28;20130;-85
2021/09/03 09:16:15;;;;;;;20.83;14.10;;;20.90;94.00;;;;;;4993154;28;20030;-85
2021/09/03 09:18:55;;;;;;;16.23;12.63;;;21.00;93.80;;;;;;4994471;28;20038;-86
2021/09/03 09:21:31;;;;;;;16.75;10.77;;;21.10;93.70;;;;;;4995127;28;20038;-85
2021/09/03 09:24:04;;;;;;;19.10;12.82;;;21.30;93.60;;;;;;4978374;28;20069;-86
2021/09/03 09:26:47;;;;;;;16.60;10.93;;;21.40;93.50;;;;;;4993614;28;20081;-86
2021/09/03 09:29:23;;;;;;;15.13;10.63;;;21.60;93.60;;;;;;4992893;28;20084;-86
2021/09/03 09:32:16;;;;;;;16.27;10.90;;;21.70;93.00;;;;;;4994568;28;20038;-85
2021/09/03 09:34:45;;;;;;;16.88;10.63;;;21.90;92.70;;;;;;4979326;28;20401;-86
2021/09/03 09:37:15;;;;;;;13.73;10.52;;;22.10;92.80;;;;;;4978429;28;20107;-86
2021/09/03 09:39:49;;;;;;;14.02;9.65;;;22.20;92.30;;;;;;4978465;28;20066;-86
2021/09/03 09:42:22;;;;;;;15.73;10.30;;;22.30;91.70;;;;;;4994171;28;20042;-84
2021/09/03 09:45:07;;;;;;;14.65;10.23;;;22.40;91.60;;;;;;4977127;28;20104;-86
2021/09/03 09:47:32;;;;;;;17.05;10.55;;;22.50;91.60;;;;;;4982532;28;20107;-86
2021/09/03 09:49:58;;;;;;;16.67;11.10;;;22.60;91.70;;;;;;5009575;28;20037;-87
2021/09/03 09:52:35;;;;;;;13.88;10.13;;;22.60;91.10;;;;;;4994453;28;20049;-86
2021/09/03 09:55:01;;;;;;;16.63;11.07;;;22.60;91.70;;;;;;4994556;28;20030;-86
2021/09/03 09:57:31;;;;;;;15.18;9.82;;;22.70;91.30;;;;;;4993053;28;20030;-86
2021/09/03 09:59:58;;;;;;;15.15;10.05;;;22.80;91.20;;;;;;4994475;28;20559;-86
2021/09/03 10:02:23;;;;;;;16.25;9.52;;;22.90;91.30;;;;;;4978423;28;20077;-87
2021/09/03 10:04:49;;;;;;;13.63;9.43;;;23.00;91.20;;;;;;5009689;28;20046;-87
2021/09/03 10:07:15;;;;;;;12.80;7.53;;;23.10;90.40;;;;;;4977517;28;20046;-86
2021/09/03 10:09:40;;;;;;;11.27;7.03;;;23.20;89.10;;;;;;4976866;28;20057;-86
2021/09/03 10:12:06;;;;;;;10.02;7.20;;;23.30;89.80;;;;;;4996498;28;20057;-86
2021/09/03 10:14:34;;;;;;;13.77;6.88;;;23.50;88.30;;;;;;5000430;28;20455;-86
2021/09/03 10:17:00;;;;;;;10.02;6.63;;;23.60;87.80;;;;;;4998858;28;20390;-87
2021/09/03 10:19:27;;;;;;;11.32;6.90;;;23.60;87.80;;;;;;4980964;28;20042;-86
2021/09/03 10:22:03;;;;;;;6.68;5.85;;;23.60;87.70;;;;;;4981354;28;20108;-88
2021/09/03 10:24:29;;;;;;;9.98;7.40;;;23.60;86.90;;;;;;4981452;28;20049;-86
2021/09/03 10:26:56;;;;;;;15.63;7.38;;;23.70;87.80;;;;;;4980826;28;20507;-85
2021/09/03 10:29:23;;;;;;;17.63;11.68;;;23.70;86.50;;;;;;4981377;28;20297;-87
2021/09/03 10:32:04;;;;;;;10.35;6.10;;;23.70;85.20;;;;;;4981674;28;20457;-86
2021/09/03 10:34:39;;;;;;;8.02;5.90;;;23.80;86.10;;;;;;4997769;28;20038;-87
2021/09/03 10:37:14;;;;;;;7.90;5.68;;;23.80;86.30;;;;;;4997069;28;20042;-83
2021/09/03 10:40:05;;;;;;;7.40;5.10;;;23.80;86.10;;;;;;4997163;28;20027;-84
2021/09/03 10:45:11;;;;;;;7.53;5.18;;;24.00;85.70;;;;;;5000114;28;20608;-87
2021/09/03 10:47:47;;;;;;;7.18;5.40;;;24.10;85.20;;;;;;4983707;28;20034;-85
2021/09/03 10:50:22;;;;;;;8.38;5.80;;;24.10;85.00;;;;;;4997213;28;20070;-87
2021/09/03 10:53:03;;;;;;;11.30;5.35;;;24.20;82.70;;;;;;4999019;28;20038;-87
2021/09/03 10:55:47;;;;;;;7.60;5.50;;;24.30;81.10;;;;;;4997785;28;20322;-86
2021/09/03 10:58:39;;;;;;;6.97;5.43;;;24.50;84.90;;;;;;5012287;28;20035;-87
2021/09/03 11:01:11;;;;;;;9.23;5.57;;;24.50;82.80;;;;;;4996665;28;20342;-86
2021/09/03 11:03:51;;;;;;;7.20;4.93;;;24.60;84.30;;;;;;4995435;28;20049;-86
2021/09/03 11:06:27;;;;;;;7.82;5.88;;;24.70;82.70;;;;;;4981308;28;20533;-87
2021/09/03 11:08:54;;;;;;;9.60;6.03;;;24.70;81.80;;;;;;4996836;28;20161;-87
2021/09/03 11:11:34;;;;;;;6.97;4.70;;;24.70;83.20;;;;;;4997316;28;20034;-87
2021/09/03 11:14:11;;;;;;;6.65;4.55;;;24.90;83.30;;;;;;4997552;28;20034;-87
2021/09/03 11:16:38;;;;;;;7.00;4.97;;;25.00;81.80;;;;;;4979920;28;20046;-87
2021/09/03 11:19:15;;;;;;;8.10;5.35;;;25.10;79.60;;;;;;4996573;28;20066;-86
2021/09/03 11:21:51;;;;;;;6.60;4.63;;;25.10;78.40;;;;;;4991370;28;20072;-86
2021/09/03 11:24:20;;;;;;;8.63;5.57;;;25.20;81.20;;;;;;4996892;28;20038;-86
2021/09/03 11:26:48;;;;;;;7.32;5.47;;;25.20;79.90;;;;;;4979965;28;20053;-87
2021/09/03 11:29:19;;;;;;;8.05;5.40;;;25.30;80.40;;;;;;4979378;28;20042;-86
2021/09/03 11:31:57;;;;;;;7.60;5.38;;;25.30;80.30;;;;;;4997272;28;20038;-86
2021/09/03 11:34:45;;;;;;;7.65;5.65;;;25.40;81.80;;;;;;5012492;28;20042;-87
2021/09/03 11:37:26;;;;;;;8.35;6.00;;;25.40;80.10;;;;;;4997114;28;20034;-86
2021/09/03 11:40:03;;;;;;;7.78;6.28;;;25.40;78.90;;;;;;4995968;28;20402;-87
2021/09/03 11:42:31;;;;;;;11.68;6.18;;;25.40;80.50;;;;;;4997625;28;20299;-87
2021/09/03 11:45:01;;;;;;;9.50;6.05;;;25.50;80.90;;;;;;4997085;28;20034;-87
2021/09/03 11:47:35;;;;;;;7.40;5.47;;;25.50;79.90;;;;;;4996241;28;20057;-86
2021/09/03 11:50:05;;;;;;;9.32;6.35;;;25.60;81.70;;;;;;4990668;28;20045;-88
2021/09/03 11:52:32;;;;;;;8.05;5.72;;;25.70;80.80;;;;;;4978695;28;20038;-86
2021/09/03 11:54:59;;;;;;;12.02;5.75;;;25.80;80.50;;;;;;4978859;28;20214;-86
2021/09/03 11:57:25;;;;;;;11.90;7.10;;;25.90;80.50;;;;;;4995382;28;20671;-87
2021/09/03 12:00:02;;;;;;;9.27;6.25;;;25.90;80.60;;;;;;4977899;28;20132;-85
2021/09/03 12:02:29;;;;;;;8.77;5.97;;;26.00;80.60;;;;;;5011860;28;20382;-87
2021/09/03 12:04:56;;;;;;;8.55;5.78;;;26.10;80.40;;;;;;4978189;28;20042;-86
2021/09/03 12:07:23;;;;;;;6.57;5.05;;;26.20;79.60;;;;;;5001397;28;20052;-87
2021/09/03 12:09:54;;;;;;;8.95;4.63;;;26.20;79.50;;;;;;4994349;28;20038;-86
2021/09/03 12:12:28;;;;;;;6.43;5.07;;;26.30;79.60;;;;;;4995519;28;20137;-87
2021/09/03 12:15:02;;;;;;;7.75;5.32;;;26.40;78.20;;;;;;4979474;28;20468;-86
2021/09/03 12:17:39;;;;;;;6.68;5.07;;;26.40;78.50;;;;;;4991129;28;20050;-88
2021/09/03 12:20:15;;;;;;;8.00;5.95;;;26.40;79.20;;;;;;5010097;28;20049;-86
2021/09/03 12:22:55;;;;;;;7.88;4.72;;;26.60;80.10;;;;;;4979118;28;20034;-86
2021/09/03 12:25:35;;;;;;;11.60;4.57;;;26.80;80.30;;;;;;4977962;28;20050;-86
2021/09/03 12:28:14;;;;;;;6.97;5.60;;;27.00;77.30;;;;;;4994793;28;20053;-87
2021/09/03 12:30:41;;;;;;;7.45;4.82;;;27.10;76.50;;;;;;4994108;28;20038;-87
2021/09/03 12:33:27;;;;;;;8.70;5.50;;;27.20;77.80;;;;;;4978315;28;20085;-86
2021/09/03 12:35:55;;;;;;;8.80;4.75;;;27.20;76.20;;;;;;4994456;28;20096;-87